Time;durP1;ratioP1;P1;durP2;ratioP2;P2;SDS_P1;SDS_P2;PMS_P1;PMS_P2;Temp;Humidity;BMP_temperature;BMP_pressure;BME280_temperature;BME280_humidity;BME280_pressure;Samples;Min_cycle;Max_cycle;Signal;HPM_P1;HPM_P2
2021/12/16 00:01:51;;;;;;;8.10;7.40;;;;;;;;;;5057908;28;24414;-57
2021/12/16 00:09:42;;;;;;;9.07;8.27;;;;;;;;;;5063356;28;24519;-57
2021/12/16 00:34:14;;;;;;;6.85;6.25;;;;;;;;;;5019494;28;24440;-57
2021/12/16 00:36:41;;;;;;;9.30;8.50;;;;;;;;;;5039412;28;25296;-56
2021/12/16 00:39:08;;;;;;;7.10;6.50;;;;;;;;;;5059158;28;24836;-57
2021/12/16 00:41:34;;;;;;;7.45;6.75;;;;;;;;;;5048982;28;24423;-57
2021/12/16 00:44:08;;;;;;;6.70;6.10;;;;;;;;;;5053793;28;24423;-57
2021/12/16 00:49:32;;;;;;;6.60;6.00;;;;;;;;;;5058702;28;24510;-57
2021/12/16 00:54:46;;;;;;;5.70;5.20;;;;;;;;;;5051693;28;24444;-57
2021/12/16 00:57:15;;;;;;;5.88;5.38;;;;;;;;;;5060809;28;24418;-57
2021/12/16 00:59:44;;;;;;;6.77;6.17;;;;;;;;;;5059843;28;24502;-57
2021/12/16 01:33:40;;;;;;;6.07;5.57;;;;;;;;;;5061366;28;24491;-57
2021/12/16 01:37:51;;;;;;;7.63;6.93;;;;;;;;;;5059635;28;24988;-57
2021/12/16 01:40:19;;;;;;;7.45;6.68;;;;;;;;;;5052796;28;24406;-57
2021/12/16 01:50:54;;;;;;;7.30;6.60;;;;;;;;;;5056551;28;24777;-57
2021/12/16 01:56:09;;;;;;;7.35;6.65;;;;;;;;;;5045387;28;24500;-57
2021/12/16 01:58:34;;;;;;;8.50;7.70;;;;;;;;;;5052370;28;24854;-57
2021/12/16 02:01:16;;;;;;;8.32;7.53;;;;;;;;;;5054775;28;24513;-57
2021/12/16 02:03:47;;;;;;;7.10;6.50;;;;;;;;;;5054774;28;24442;-57
2021/12/16 02:08:46;;;;;;;8.63;7.82;;;;;;;;;;5049359;28;25071;-57
2021/12/16 02:27:35;;;;;;;7.70;7.00;;;;;;;;;;5055152;28;24718;-57
2021/12/16 02:35:33;;;;;;;7.60;6.90;;;;;;;;;;5053318;28;24453;-57
2021/12/16 02:38:00;;;;;;;8.30;7.50;;;;;;;;;;5050195;28;24418;-57
2021/12/16 02:40:26;;;;;;;8.30;7.50;;;;;;;;;;5058045;28;24480;-57
2021/12/16 02:43:38;;;;;;;7.40;6.70;;;;;;;;;;5060143;28;24431;-58
2021/12/16 02:48:32;;;;;;;7.72;7.03;;;;;;;;;;5060280;28;24410;-57
2021/12/16 02:51:06;;;;;;;7.00;6.40;;;;;;;;;;5059557;28;24513;-57
2021/12/16 02:53:32;;;;;;;7.07;6.38;;;;;;;;;;5065731;28;24399;-57
2021/12/16 02:55:58;;;;;;;8.00;7.20;;;;;;;;;;5051948;28;25317;-57
2021/12/16 02:58:23;;;;;;;7.33;6.63;;;;;;;;;;5059617;28;24423;-57
2021/12/16 03:00:54;;;;;;;8.33;7.43;;;;;;;;;;5056983;28;25139;-57
2021/12/16 03:03:19;;;;;;;7.50;6.78;;;;;;;;;;5061536;28;24488;-57
2021/12/16 03:05:44;;;;;;;8.53;7.73;;;;;;;;;;5059431;28;24525;-57
2021/12/16 03:08:10;;;;;;;8.97;8.03;;;;;;;;;;5061867;28;24426;-56
2021/12/16 03:13:07;;;;;;;7.60;6.90;;;;;;;;;;5062838;28;24546;-56
2021/12/16 03:18:18;;;;;;;8.95;7.90;;;;;;;;;;5059419;28;24912;-56
2021/12/16 03:20:49;;;;;;;9.40;8.40;;;;;;;;;;5055878;28;24451;-56
2021/12/16 03:23:28;;;;;;;9.95;8.95;;;;;;;;;;5060520;28;24522;-55
2021/12/16 03:26:28;;;;;;;9.37;8.47;;;;;;;;;;5045353;28;24455;-56
2021/12/16 03:31:47;;;;;;;10.33;9.27;;;;;;;;;;5060642;28;24475;-56
2021/12/16 03:37:14;;;;;;;11.57;10.27;;;;;;;;;;5064447;28;25112;-55
2021/12/16 03:39:59;;;;;;;11.30;10.20;;;;;;;;;;5062580;28;24453;-56
2021/12/16 03:42:24;;;;;;;12.95;11.55;;;;;;;;;;5053634;28;24657;-55
2021/12/16 03:44:59;;;;;;;12.88;10.70;;;;;;;;;;5060384;28;25107;-55
2021/12/16 03:47:33;;;;;;;12.38;11.07;;;;;;;;;;5051839;28;24581;-55
2021/12/16 03:49:59;;;;;;;11.47;10.27;;;;;;;;;;5059766;28;26250;-55
2021/12/16 03:52:24;;;;;;;13.70;11.93;;;;;;;;;;5061651;28;24967;-55
2021/12/16 03:54:51;;;;;;;13.70;12.27;;;;;;;;;;5064122;28;24494;-55
2021/12/16 03:57:18;;;;;;;13.23;11.80;;;;;;;;;;5058788;28;24434;-56
2021/12/16 03:59:43;;;;;;;12.90;11.15;;;;;;;;;;5052933;28;24472;-56
2021/12/16 04:02:11;;;;;;;14.27;12.57;;;;;;;;;;5051213;28;24477;-56
2021/12/16 04:04:37;;;;;;;14.10;12.70;;;;;;;;;;5056998;28;24423;-57
2021/12/16 04:07:03;;;;;;;15.67;13.07;;;;;;;;;;5063083;28;24437;-56
2021/12/16 04:09:30;;;;;;;15.77;13.10;;;;;;;;;;5060048;28;24422;-56
2021/12/16 04:12:03;;;;;;;14.13;12.63;;;;;;;;;;5050341;28;24433;-57
2021/12/16 04:14:29;;;;;;;15.77;12.50;;;;;;;;;;5057739;28;24854;-56
2021/12/16 04:16:55;;;;;;;13.43;11.90;;;;;;;;;;5057445;28;24458;-56
2021/12/16 04:19:23;;;;;;;15.40;12.35;;;;;;;;;;5059738;28;24422;-56
2021/12/16 04:21:52;;;;;;;16.48;12.60;;;;;;;;;;5059839;28;24979;-56
2021/12/16 04:24:17;;;;;;;13.30;11.90;;;;;;;;;;5053526;28;24938;-56
2021/12/16 04:26:43;;;;;;;13.90;12.50;;;;;;;;;;5061556;28;25086;-56
2021/12/16 04:29:08;;;;;;;15.57;12.50;;;;;;;;;;5060097;28;24419;-56
2021/12/16 04:31:35;;;;;;;15.50;13.00;;;;;;;;;;5063047;28;24481;-56
2021/12/16 04:34:00;;;;;;;17.50;14.87;;;;;;;;;;5055876;28;24631;-56
2021/12/16 04:36:25;;;;;;;15.83;14.13;;;;;;;;;;5055527;28;24504;-56
2021/12/16 04:38:50;;;;;;;15.37;13.53;;;;;;;;;;5058773;28;24437;-56
2021/12/16 04:41:16;;;;;;;15.80;13.50;;;;;;;;;;5057500;28;24456;-56
2021/12/16 04:43:46;;;;;;;16.73;14.20;;;;;;;;;;5062517;28;24530;-57
2021/12/16 04:46:12;;;;;;;15.68;13.98;;;;;;;;;;5056767;28;24460;-57
2021/12/16 04:48:39;;;;;;;14.70;13.00;;;;;;;;;;5054048;28;25070;-57
2021/12/16 04:51:04;;;;;;;16.30;13.77;;;;;;;;;;5056876;28;24840;-56
2021/12/16 04:53:30;;;;;;;17.48;14.23;;;;;;;;;;5059986;28;25232;-56
2021/12/16 04:55:56;;;;;;;17.23;15.05;;;;;;;;;;5060919;28;24418;-57
2021/12/16 04:58:22;;;;;;;17.27;14.55;;;;;;;;;;5053876;28;24415;-56
2021/12/16 05:00:47;;;;;;;19.75;15.70;;;;;;;;;;5055419;28;24777;-56
2021/12/16 05:03:12;;;;;;;18.70;15.60;;;;;;;;;;5048594;28;24973;-56
2021/12/16 05:05:38;;;;;;;17.08;14.52;;;;;;;;;;5055980;28;24464;-57
2021/12/16 05:08:03;;;;;;;18.87;15.07;;;;;;;;;;5058666;28;24514;-56
2021/12/16 05:10:28;;;;;;;18.00;15.20;;;;;;;;;;5057783;28;24457;-56
2021/12/16 05:12:56;;;;;;;16.98;15.00;;;;;;;;;;5060545;28;24433;-56
2021/12/16 05:15:23;;;;;;;16.60;14.82;;;;;;;;;;5076032;28;26193;-58
2021/12/16 05:17:51;;;;;;;16.05;14.35;;;;;;;;;;5058247;28;24415;-57
2021/12/16 05:20:21;;;;;;;19.30;16.50;;;;;;;;;;5052322;28;24445;-57
2021/12/16 05:25:50;;;;;;;17.30;15.15;;;;;;;;;;5056465;28;24422;-57
2021/12/16 05:28:17;;;;;;;16.35;14.57;;;;;;;;;;5055486;28;24456;-58
2021/12/16 05:30:42;;;;;;;20.40;18.20;;;;;;;;;;5061112;28;24476;-57
2021/12/16 05:33:07;;;;;;;16.50;14.20;;;;;;;;;;5051049;28;24494;-57
2021/12/16 05:35:33;;;;;;;16.67;14.87;;;;;;;;;;5052442;28;24584;-57
2021/12/16 05:37:58;;;;;;;18.27;15.70;;;;;;;;;;5049215;28;24475;-60
2021/12/16 05:40:25;;;;;;;17.83;15.82;;;;;;;;;;5053228;28;24931;-57
2021/12/16 05:42:54;;;;;;;17.45;15.43;;;;;;;;;;5055644;28;25007;-58
2021/12/16 05:45:20;;;;;;;17.30;15.13;;;;;;;;;;5044754;28;24823;-58
2021/12/16 05:47:45;;;;;;;17.27;15.00;;;;;;;;;;5051523;28;24580;-57
2021/12/16 05:50:10;;;;;;;18.70;16.53;;;;;;;;;;5056517;28;24504;-57
2021/12/16 05:52:36;;;;;;;20.70;16.50;;;;;;;;;;5059750;28;25175;-58
2021/12/16 05:55:02;;;;;;;19.20;15.88;;;;;;;;;;5053816;28;24562;-57
2021/12/16 05:57:27;;;;;;;18.95;15.88;;;;;;;;;;5057168;28;24427;-58
2021/12/16 05:59:53;;;;;;;19.38;15.80;;;;;;;;;;5052511;28;24410;-58
2021/12/16 06:02:18;;;;;;;18.70;16.70;;;;;;;;;;5053670;28;24462;-59
2021/12/16 06:04:43;;;;;;;19.63;14.70;;;;;;;;;;5050046;28;24952;-58
2021/12/16 06:07:09;;;;;;;18.60;15.03;;;;;;;;;;5055547;28;24561;-57
2021/12/16 06:09:34;;;;;;;17.33;14.77;;;;;;;;;;5053958;28;24831;-57
2021/12/16 06:12:00;;;;;;;19.20;15.02;;;;;;;;;;5051390;28;24854;-58
2021/12/16 06:14:41;;;;;;;19.20;15.80;;;;;;;;;;5056995;28;24426;-58
2021/12/16 06:22:55;;;;;;;18.25;15.90;;;;;;;;;;5047731;28;24430;-57
2021/12/16 06:28:06;;;;;;;18.92;14.25;;;;;;;;;;5054721;28;24415;-57
2021/12/16 06:30:34;;;;;;;16.33;14.60;;;;;;;;;;5053459;28;24430;-57
2021/12/16 06:33:01;;;;;;;17.50;14.65;;;;;;;;;;5041309;28;24407;-56
2021/12/16 06:35:26;;;;;;;17.95;15.50;;;;;;;;;;5062198;28;24545;-57
2021/12/16 06:37:51;;;;;;;18.15;15.05;;;;;;;;;;5063206;28;24427;-57
2021/12/16 06:40:16;;;;;;;19.17;15.60;;;;;;;;;;5051827;28;24440;-57
2021/12/16 06:42:43;;;;;;;18.67;16.03;;;;;;;;;;5064843;28;24518;-57
2021/12/16 06:45:14;;;;;;;19.77;16.03;;;;;;;;;;5054780;28;24423;-57
2021/12/16 06:47:46;;;;;;;19.02;15.27;;;;;;;;;;5064234;28;24415;-57
2021/12/16 06:50:21;;;;;;;19.50;16.15;;;;;;;;;;5062802;28;24789;-57
2021/12/16 06:52:48;;;;;;;20.20;16.08;;;;;;;;;;5066254;28;24399;-57
2021/12/16 06:55:32;;;;;;;19.48;16.30;;;;;;;;;;5042726;28;24979;-57
2021/12/16 06:58:08;;;;;;;19.35;15.90;;;;;;;;;;5047741;28;24855;-57
2021/12/16 07:00:40;;;;;;;19.80;16.25;;;;;;;;;;5046380;28;24497;-57
2021/12/16 07:03:16;;;;;;;19.77;16.20;;;;;;;;;;5057474;28;24898;-57
2021/12/16 07:05:41;;;;;;;20.73;17.42;;;;;;;;;;5059267;28;24419;-57
2021/12/16 07:08:09;;;;;;;19.97;16.10;;;;;;;;;;5058292;28;25244;-57
2021/12/16 07:10:35;;;;;;;20.80;16.17;;;;;;;;;;5065259;28;24449;-57
2021/12/16 07:13:06;;;;;;;19.77;16.58;;;;;;;;;;5062497;28;24720;-57
2021/12/16 07:15:32;;;;;;;20.67;16.95;;;;;;;;;;5062792;28;24434;-57
2021/12/16 07:17:57;;;;;;;21.70;16.70;;;;;;;;;;5053702;28;24488;-58
2021/12/16 07:20:24;;;;;;;21.83;17.33;;;;;;;;;;5060734;28;24446;-57
2021/12/16 07:22:50;;;;;;;18.48;15.68;;;;;;;;;;5061459;28;24418;-57
2021/12/16 07:25:15;;;;;;;20.65;16.77;;;;;;;;;;5061331;28;24472;-57
2021/12/16 07:27:41;;;;;;;20.08;15.75;;;;;;;;;;5063346;28;24426;-58
2021/12/16 07:30:07;;;;;;;20.23;17.90;;;;;;;;;;5058716;28;24422;-59
2021/12/16 07:32:33;;;;;;;21.52;17.95;;;;;;;;;;5061314;28;24407;-57
2021/12/16 07:34:58;;;;;;;19.65;16.35;;;;;;;;;;5056978;28;24446;-57
2021/12/16 07:37:23;;;;;;;20.87;17.60;;;;;;;;;;5065604;28;24406;-57
2021/12/16 07:39:50;;;;;;;20.40;17.70;;;;;;;;;;5062964;28;24530;-57
2021/12/16 07:42:23;;;;;;;20.88;17.27;;;;;;;;;;5063327;28;24456;-57
2021/12/16 07:44:49;;;;;;;22.30;18.98;;;;;;;;;;5060975;28;24465;-57
2021/12/16 07:47:14;;;;;;;19.38;16.98;;;;;;;;;;5059965;28;24461;-57
2021/12/16 07:49:40;;;;;;;22.10;18.70;;;;;;;;;;5057372;28;24488;-57
2021/12/16 07:52:06;;;;;;;23.35;19.98;;;;;;;;;;5062408;28;24411;-57
2021/12/16 07:54:31;;;;;;;26.05;20.30;;;;;;;;;;5058004;28;24466;-57
2021/12/16 07:56:58;;;;;;;24.53;19.57;;;;;;;;;;5057613;28;24704;-57
2021/12/16 07:59:25;;;;;;;28.30;22.25;;;;;;;;;;5058330;28;24590;-57
2021/12/16 08:01:50;;;;;;;26.60;20.10;;;;;;;;;;5060721;28;24828;-57
2021/12/16 08:04:27;;;;;;;27.77;20.83;;;;;;;;;;5061126;28;24426;-56
2021/12/16 08:06:53;;;;;;;26.53;21.63;;;;;;;;;;5056932;28;24472;-58
2021/12/16 08:09:18;;;;;;;26.13;20.27;;;;;;;;;;5052110;28;24425;-58
2021/12/16 08:11:44;;;;;;;25.17;19.67;;;;;;;;;;5063626;28;24425;-58
2021/12/16 08:14:09;;;;;;;26.42;20.27;;;;;;;;;;5061787;28;24434;-58
2021/12/16 08:16:35;;;;;;;25.70;19.90;;;;;;;;;;5062854;28;24399;-58
2021/12/16 08:19:01;;;;;;;25.58;19.70;;;;;;;;;;5056437;28;24526;-58
2021/12/16 08:21:29;;;;;;;25.63;20.23;;;;;;;;;;5060028;28;24517;-58
2021/12/16 08:23:55;;;;;;;22.95;18.80;;;;;;;;;;5056667;28;24473;-58
2021/12/16 08:26:20;;;;;;;27.30;20.48;;;;;;;;;;5062365;28;24391;-58
2021/12/16 08:28:46;;;;;;;21.52;17.42;;;;;;;;;;5061521;28;24421;-57
2021/12/16 08:31:11;;;;;;;27.10;20.40;;;;;;;;;;5059597;28;24426;-57
2021/12/16 08:33:38;;;;;;;24.45;18.85;;;;;;;;;;5052925;28;24766;-57
2021/12/16 08:36:04;;;;;;;25.20;18.30;;;;;;;;;;5058633;28;24913;-58
2021/12/16 08:38:29;;;;;;;26.40;18.87;;;;;;;;;;5060597;28;24944;-57
2021/12/16 08:40:59;;;;;;;24.90;18.98;;;;;;;;;;5055813;28;24577;-58
2021/12/16 08:43:24;;;;;;;24.40;17.80;;;;;;;;;;5059897;28;24457;-57
2021/12/16 08:45:49;;;;;;;23.38;17.90;;;;;;;;;;5059691;28;24905;-61
2021/12/16 08:48:14;;;;;;;24.30;18.67;;;;;;;;;;5059353;28;24417;-57
2021/12/16 08:50:42;;;;;;;23.92;18.10;;;;;;;;;;5063633;28;24414;-56
2021/12/16 08:53:08;;;;;;;24.95;18.90;;;;;;;;;;5061064;28;24441;-57
2021/12/16 08:55:35;;;;;;;26.15;19.98;;;;;;;;;;5053332;28;24423;-59
2021/12/16 08:58:00;;;;;;;28.40;20.08;;;;;;;;;;5055240;28;24816;-59
2021/12/16 09:00:28;;;;;;;29.57;22.23;;;;;;;;;;5058551;28;24422;-59
2021/12/16 09:02:53;;;;;;;27.83;20.40;;;;;;;;;;5062537;28;25217;-59
2021/12/16 09:05:20;;;;;;;27.33;20.83;;;;;;;;;;5055393;28;24441;-56
2021/12/16 09:07:48;;;;;;;25.98;20.85;;;;;;;;;;5041090;28;25099;-56
2021/12/16 09:10:14;;;;;;;28.77;22.47;;;;;;;;;;5060235;28;24508;-57
2021/12/16 09:12:54;;;;;;;27.73;21.45;;;;;;;;;;5062875;28;24808;-57
2021/12/16 09:15:21;;;;;;;25.10;19.08;;;;;;;;;;5059589;28;24471;-57
2021/12/16 09:17:46;;;;;;;23.33;18.35;;;;;;;;;;5055010;28;24510;-57
2021/12/16 09:20:12;;;;;;;23.30;19.03;;;;;;;;;;5058274;28;24556;-56
2021/12/16 09:22:38;;;;;;;26.10;19.75;;;;;;;;;;5061702;28;24561;-57
2021/12/16 09:25:04;;;;;;;30.45;22.00;;;;;;;;;;5060437;28;24425;-57
2021/12/16 09:27:29;;;;;;;24.75;20.70;;;;;;;;;;5059386;28;24421;-57
2021/12/16 09:29:55;;;;;;;27.10;21.07;;;;;;;;;;5058251;28;24435;-57
2021/12/16 09:32:23;;;;;;;29.73;21.58;;;;;;;;;;5055697;28;24418;-57
2021/12/16 09:34:48;;;;;;;26.42;19.00;;;;;;;;;;5055178;28;24442;-58
2021/12/16 09:37:13;;;;;;;25.03;18.30;;;;;;;;;;5061815;28;24473;-57
2021/12/16 09:39:38;;;;;;;28.40;19.00;;;;;;;;;;5057729;28;25331;-57
2021/12/16 09:42:05;;;;;;;25.43;20.30;;;;;;;;;;5060291;28;25252;-57
2021/12/16 09:44:31;;;;;;;26.10;19.75;;;;;;;;;;5056471;28;24436;-57
2021/12/16 09:46:57;;;;;;;28.65;20.25;;;;;;;;;;5057092;28;24433;-57
2021/12/16 09:49:22;;;;;;;28.30;20.38;;;;;;;;;;5053413;28;24515;-57
2021/12/16 09:51:48;;;;;;;27.97;21.70;;;;;;;;;;5056465;28;24473;-57
2021/12/16 09:54:16;;;;;;;28.70;20.92;;;;;;;;;;5049046;28;24549;-57
2021/12/16 09:56:43;;;;;;;27.10;21.10;;;;;;;;;;5062582;28;24402;-57
2021/12/16 09:59:10;;;;;;;26.85;19.88;;;;;;;;;;5054920;28;24419;-57
2021/12/16 10:01:36;;;;;;;27.92;20.10;;;;;;;;;;5053860;28;24513;-57
2021/12/16 10:04:03;;;;;;;29.05;22.33;;;;;;;;;;5059032;28;25464;-57
2021/12/16 10:06:30;;;;;;;29.00;21.73;;;;;;;;;;5061185;28;24517;-58
2021/12/16 10:08:55;;;;;;;27.15;21.30;;;;;;;;;;5059565;28;25002;-58
2021/12/16 10:11:21;;;;;;;25.00;20.07;;;;;;;;;;5056008;28;24505;-58
2021/12/16 10:14:00;;;;;;;27.50;20.70;;;;;;;;;;5055977;28;24991;-58
2021/12/16 10:19:10;;;;;;;25.92;20.40;;;;;;;;;;5059606;28;24532;-58
2021/12/16 10:21:37;;;;;;;27.67;21.53;;;;;;;;;;5058111;28;24422;-57
2021/12/16 10:24:02;;;;;;;31.52;20.25;;;;;;;;;;5058293;28;24441;-58
2021/12/16 10:26:27;;;;;;;26.50;19.37;;;;;;;;;;5056448;28;24391;-58
2021/12/16 10:28:56;;;;;;;26.95;19.20;;;;;;;;;;5056086;28;24912;-58
2021/12/16 10:31:23;;;;;;;24.92;19.63;;;;;;;;;;5059674;28;24422;-58
2021/12/16 10:33:50;;;;;;;24.40;18.90;;;;;;;;;;5058645;28;24479;-57
2021/12/16 10:36:15;;;;;;;22.05;18.70;;;;;;;;;;5044133;28;24419;-58
2021/12/16 10:38:51;;;;;;;26.88;19.75;;;;;;;;;;5045331;28;24438;-58
2021/12/16 10:41:21;;;;;;;24.45;19.67;;;;;;;;;;5053781;28;25124;-58
2021/12/16 10:43:49;;;;;;;25.60;19.20;;;;;;;;;;5056903;28;24845;-57
2021/12/16 10:46:16;;;;;;;27.13;18.00;;;;;;;;;;5057723;28;24812;-58
2021/12/16 10:48:43;;;;;;;25.65;19.33;;;;;;;;;;5057747;28;24904;-58
2021/12/16 10:51:19;;;;;;;25.35;19.67;;;;;;;;;;5057531;28;24433;-57
2021/12/16 10:54:04;;;;;;;25.88;19.65;;;;;;;;;;5058046;28;24512;-57
2021/12/16 10:56:36;;;;;;;20.63;16.95;;;;;;;;;;5059354;28;24537;-57
2021/12/16 10:59:12;;;;;;;22.05;17.20;;;;;;;;;;5053016;28;24423;-57
2021/12/16 11:01:40;;;;;;;21.33;17.35;;;;;;;;;;5057422;28;24890;-58
2021/12/16 11:04:12;;;;;;;22.17;17.17;;;;;;;;;;5047433;28;24430;-58
2021/12/16 11:06:39;;;;;;;21.75;18.00;;;;;;;;;;5051950;28;24995;-58
2021/12/16 11:09:23;;;;;;;23.30;17.97;;;;;;;;;;5055377;28;24488;-58
2021/12/16 11:11:49;;;;;;;22.35;17.75;;;;;;;;;;5059057;28;24859;-57
2021/12/16 11:14:21;;;;;;;23.77;18.65;;;;;;;;;;5061671;28;24430;-58
2021/12/16 11:16:56;;;;;;;25.15;20.00;;;;;;;;;;5059427;28;24434;-57
2021/12/16 11:19:37;;;;;;;21.20;17.67;;;;;;;;;;5058272;28;24430;-57
2021/12/16 11:22:03;;;;;;;22.58;17.90;;;;;;;;;;5059161;28;24410;-58
2021/12/16 11:24:29;;;;;;;25.43;19.40;;;;;;;;;;5058753;28;24442;-57
2021/12/16 11:26:55;;;;;;;21.58;16.40;;;;;;;;;;5058518;28;24450;-57
2021/12/16 11:29:22;;;;;;;21.90;17.48;;;;;;;;;;5058156;28;24619;-58
2021/12/16 11:31:48;;;;;;;26.17;19.10;;;;;;;;;;5064967;28;24848;-57
2021/12/16 11:34:14;;;;;;;20.80;16.38;;;;;;;;;;5053318;28;24504;-57
2021/12/16 11:36:41;;;;;;;24.40;18.80;;;;;;;;;;5055838;28;24419;-57
2021/12/16 11:39:08;;;;;;;20.90;17.23;;;;;;;;;;5057874;28;24431;-57
2021/12/16 11:41:39;;;;;;;24.27;18.05;;;;;;;;;;5065064;28;24482;-57
2021/12/16 11:44:04;;;;;;;23.83;19.52;;;;;;;;;;5062275;28;24573;-57
2021/12/16 11:46:31;;;;;;;22.02;16.90;;;;;;;;;;5061573;28;24518;-57
2021/12/16 11:48:59;;;;;;;23.37;18.30;;;;;;;;;;5059519;28;24418;-57
2021/12/16 11:51:34;;;;;;;20.80;16.38;;;;;;;;;;5062522;28;24849;-59
2021/12/16 11:54:01;;;;;;;22.48;16.75;;;;;;;;;;5058398;28;24426;-56
2021/12/16 11:56:41;;;;;;;19.42;16.35;;;;;;;;;;5044877;28;25019;-57
2021/12/16 11:59:07;;;;;;;19.35;15.73;;;;;;;;;;5050060;28;24444;-56
2021/12/16 12:01:32;;;;;;;21.10;16.17;;;;;;;;;;5058160;28;24794;-57
2021/12/16 12:04:05;;;;;;;20.80;15.23;;;;;;;;;;5058401;28;24470;-57
2021/12/16 12:06:31;;;;;;;19.85;15.45;;;;;;;;;;5062059;28;24440;-57
2021/12/16 12:08:57;;;;;;;18.60;15.27;;;;;;;;;;5060401;28;24460;-57
2021/12/16 12:11:25;;;;;;;19.87;14.87;;;;;;;;;;5055464;28;24973;-57
2021/12/16 12:13:56;;;;;;;19.17;14.70;;;;;;;;;;5057943;28;24414;-56
2021/12/16 12:16:25;;;;;;;19.15;15.57;;;;;;;;;;5062319;28;24473;-57
2021/12/16 12:18:52;;;;;;;19.35;13.80;;;;;;;;;;5063370;28;25174;-57
2021/12/16 12:21:17;;;;;;;13.52;12.05;;;;;;;;;;5058570;28;24426;-57
2021/12/16 12:23:42;;;;;;;16.10;12.90;;;;;;;;;;5045078;28;24437;-57
2021/12/16 12:26:12;;;;;;;15.88;13.43;;;;;;;;;;5056790;28;24419;-57
2021/12/16 12:28:37;;;;;;;15.68;13.20;;;;;;;;;;5061682;28;24429;-56
2021/12/16 12:31:03;;;;;;;14.55;12.73;;;;;;;;;;5059316;28;24510;-56
2021/12/16 12:33:28;;;;;;;15.23;12.17;;;;;;;;;;5063111;28;24423;-57
2021/12/16 12:35:53;;;;;;;15.70;12.40;;;;;;;;;;5063146;28;24467;-56
2021/12/16 12:38:18;;;;;;;14.90;12.43;;;;;;;;;;5058996;28;24836;-57
2021/12/16 12:40:44;;;;;;;13.53;11.70;;;;;;;;;;5055527;28;24430;-57
2021/12/16 12:43:13;;;;;;;13.13;11.73;;;;;;;;;;5059540;28;24487;-56
2021/12/16 12:45:41;;;;;;;12.35;10.65;;;;;;;;;;5063931;28;24379;-57
2021/12/16 12:48:10;;;;;;;11.05;9.73;;;;;;;;;;5061011;28;25023;-57
2021/12/16 12:50:38;;;;;;;11.50;10.30;;;;;;;;;;5056924;28;21239;-57
2021/12/16 12:53:15;;;;;;;13.00;11.38;;;;;;;;;;5054319;28;24821;-57
2021/12/16 12:55:41;;;;;;;12.48;11.18;;;;;;;;;;5059297;28;24460;-57
2021/12/16 12:58:13;;;;;;;12.27;10.07;;;;;;;;;;5057448;28;24561;-57
2021/12/16 13:00:50;;;;;;;11.15;10.05;;;;;;;;;;5059984;28;24792;-57
2021/12/16 13:03:18;;;;;;;13.00;11.68;;;;;;;;;;5057848;28;24982;-57
2021/12/16 13:05:54;;;;;;;12.30;11.00;;;;;;;;;;5061684;28;24395;-57
2021/12/16 13:08:40;;;;;;;11.50;10.30;;;;;;;;;;5056374;28;24459;-57
2021/12/16 13:11:12;;;;;;;14.18;12.43;;;;;;;;;;5046096;28;24508;-57
2021/12/16 13:13:45;;;;;;;12.93;10.82;;;;;;;;;;5060001;28;24947;-58
2021/12/16 13:16:22;;;;;;;11.80;10.60;;;;;;;;;;5059575;28;24711;-58
2021/12/16 13:24:56;;;;;;;11.60;10.40;;;;;;;;;;5062086;28;24470;-57
2021/12/16 13:27:29;;;;;;;13.10;10.82;;;;;;;;;;5050050;28;24414;-57
2021/12/16 13:30:18;;;;;;;13.82;11.68;;;;;;;;;;5056834;28;24468;-57
2021/12/16 13:33:12;;;;;;;12.63;10.50;;;;;;;;;;5054981;28;24551;-57
2021/12/16 13:35:46;;;;;;;12.60;11.30;;;;;;;;;;5062489;28;24518;-57
2021/12/16 13:38:11;;;;;;;13.47;11.10;;;;;;;;;;5058742;28;24426;-57
2021/12/16 13:40:38;;;;;;;13.75;12.25;;;;;;;;;;5058080;28;24434;-57
2021/12/16 13:43:17;;;;;;;11.55;10.35;;;;;;;;;;5051257;28;24949;-57
2021/12/16 13:46:15;;;;;;;12.32;11.02;;;;;;;;;;5038789;28;24387;-57
2021/12/16 13:49:01;;;;;;;11.20;10.10;;;;;;;;;;5050449;28;24419;-57
2021/12/16 14:03:04;;;;;;;12.98;10.07;;;;;;;;;;5052901;28;24544;-57
2021/12/16 14:05:39;;;;;;;13.13;10.02;;;;;;;;;;5062302;28;24394;-57
2021/12/16 14:08:06;;;;;;;15.60;12.48;;;;;;;;;;5055817;28;24461;-58
2021/12/16 14:16:11;;;;;;;14.40;12.23;;;;;;;;;;5053272;28;24437;-57
2021/12/16 14:24:58;;;;;;;17.17;13.20;;;;;;;;;;5053037;28;24430;-57
2021/12/16 14:34:07;;;;;;;16.67;12.45;;;;;;;;;;5040815;28;24450;-57
2021/12/16 14:36:47;;;;;;;15.98;12.77;;;;;;;;;;5041316;28;24446;-57
2021/12/16 14:38:59;;;;;;;16.23;12.52;;;;;;;;;;5060700;28;24771;-57
2021/12/16 14:47:04;;;;;;;22.15;15.45;;;;;;;;;;5044807;28;24950;-57
2021/12/16 14:49:37;;;;;;;15.27;12.45;;;;;;;;;;5060484;28;24978;-57
2021/12/16 14:52:03;;;;;;;16.55;13.77;;;;;;;;;;5066276;28;24434;-57
2021/12/16 14:54:31;;;;;;;18.20;14.18;;;;;;;;;;5058305;28;24874;-57
2021/12/16 14:56:57;;;;;;;16.30;12.93;;;;;;;;;;5063873;28;24401;-57
2021/12/16 14:59:27;;;;;;;14.35;11.88;;;;;;;;;;5047841;28;24427;-57
2021/12/16 15:01:54;;;;;;;15.20;12.23;;;;;;;;;;5044219;28;24422;-57
2021/12/16 15:04:24;;;;;;;12.65;11.00;;;;;;;;;;5052279;28;24419;-57
2021/12/16 15:06:58;;;;;;;18.33;13.10;;;;;;;;;;5052127;28;24406;-57
2021/12/16 15:09:29;;;;;;;13.50;10.52;;;;;;;;;;5057256;28;24493;-57
2021/12/16 15:12:31;;;;;;;15.10;12.18;;;;;;;;;;5051820;28;25162;-57
2021/12/16 15:31:38;;;;;;;12.60;10.50;;;;;;;;;;5053129;28;24454;-57
2021/12/16 15:40:07;;;;;;;15.27;11.75;;;;;;;;;;5060563;28;24824;-57
2021/12/16 15:42:47;;;;;;;11.20;9.48;;;;;;;;;;5056294;28;24832;-57
2021/12/16 15:45:24;;;;;;;13.05;10.38;;;;;;;;;;5038110;28;25167;-57
2021/12/16 15:48:00;;;;;;;11.95;9.60;;;;;;;;;;5047816;28;24541;-57
2021/12/16 15:50:28;;;;;;;12.15;10.13;;;;;;;;;;5055417;28;25059;-57
2021/12/16 15:52:54;;;;;;;15.93;11.10;;;;;;;;;;5048875;28;24457;-57
2021/12/16 15:55:34;;;;;;;11.10;9.90;;;;;;;;;;5057722;28;24485;-57
2021/12/16 15:58:00;;;;;;;11.45;9.90;;;;;;;;;;5051692;28;24945;-57
2021/12/16 16:00:26;;;;;;;11.15;9.32;;;;;;;;;;5054344;28;24451;-57
2021/12/16 16:02:54;;;;;;;14.43;11.17;;;;;;;;;;5056702;28;25680;-57
2021/12/16 16:05:20;;;;;;;13.00;10.50;;;;;;;;;;5053074;28;24443;-55
2021/12/16 16:07:45;;;;;;;12.60;10.10;;;;;;;;;;5045759;28;24457;-55
2021/12/16 16:10:11;;;;;;;11.80;9.85;;;;;;;;;;5063749;28;24411;-55
2021/12/16 16:12:36;;;;;;;12.13;9.82;;;;;;;;;;5072997;28;25029;-55
2021/12/16 16:15:16;;;;;;;13.13;10.90;;;;;;;;;;5053699;28;24422;-55
2021/12/16 16:18:11;;;;;;;12.10;10.30;;;;;;;;;;5060853;28;24375;-55
2021/12/16 16:20:37;;;;;;;11.60;10.10;;;;;;;;;;5052135;28;24442;-57
2021/12/16 16:23:03;;;;;;;14.63;11.83;;;;;;;;;;5057323;28;25071;-57
2021/12/16 16:25:28;;;;;;;11.55;10.30;;;;;;;;;;5049618;28;24415;-58
2021/12/16 16:27:54;;;;;;;13.10;11.40;;;;;;;;;;5058387;28;24506;-57
2021/12/16 16:30:20;;;;;;;12.73;10.30;;;;;;;;;;5053725;28;24422;-57
2021/12/16 16:33:05;;;;;;;11.57;10.13;;;;;;;;;;5043741;28;24411;-58
2021/12/16 16:35:31;;;;;;;14.43;12.07;;;;;;;;;;5043736;28;24773;-58
2021/12/16 16:38:14;;;;;;;13.10;10.90;;;;;;;;;;5053283;28;24411;-58
2021/12/16 16:40:41;;;;;;;12.70;11.40;;;;;;;;;;5063654;28;25207;-58
2021/12/16 16:43:19;;;;;;;14.30;12.50;;;;;;;;;;5070605;28;24433;-58
2021/12/16 16:45:47;;;;;;;18.08;14.00;;;;;;;;;;5078905;28;24404;-58
2021/12/16 16:48:28;;;;;;;13.70;11.57;;;;;;;;;;5077221;28;24415;-58
2021/12/16 16:51:07;;;;;;;15.63;12.38;;;;;;;;;;5061754;28;24430;-58
2021/12/16 16:53:42;;;;;;;18.15;12.93;;;;;;;;;;5057715;28;24417;-58
2021/12/16 16:56:07;;;;;;;17.60;14.15;;;;;;;;;;5051775;28;24407;-58
2021/12/16 16:58:33;;;;;;;18.90;14.80;;;;;;;;;;5063043;28;24827;-57
2021/12/16 17:00:58;;;;;;;15.32;13.30;;;;;;;;;;5061492;28;25275;-58
2021/12/16 17:03:23;;;;;;;17.13;13.03;;;;;;;;;;5069070;28;24426;-58
2021/12/16 17:05:54;;;;;;;16.23;13.73;;;;;;;;;;5069029;28;24407;-58
2021/12/16 17:08:21;;;;;;;19.63;15.07;;;;;;;;;;5058684;28;24892;-59
2021/12/16 17:10:47;;;;;;;14.93;12.95;;;;;;;;;;5049564;28;24502;-60
2021/12/16 17:13:22;;;;;;;15.15;12.57;;;;;;;;;;5059889;28;24551;-58
2021/12/16 17:18:21;;;;;;;18.83;13.93;;;;;;;;;;5046431;28;24477;-57
2021/12/16 17:20:48;;;;;;;17.55;13.85;;;;;;;;;;5039230;28;24418;-58
2021/12/16 17:23:14;;;;;;;18.23;13.90;;;;;;;;;;5039555;28;24518;-58
2021/12/16 17:25:39;;;;;;;17.97;13.60;;;;;;;;;;5059613;28;24506;-58
2021/12/16 17:28:04;;;;;;;16.60;13.60;;;;;;;;;;5061151;28;24507;-59
2021/12/16 17:30:32;;;;;;;17.80;13.07;;;;;;;;;;5061135;28;24386;-58
2021/12/16 17:32:58;;;;;;;18.73;14.70;;;;;;;;;;5059253;28;24395;-58
2021/12/16 17:35:25;;;;;;;16.35;12.88;;;;;;;;;;5059426;28;24437;-59
2021/12/16 17:37:56;;;;;;;17.88;14.48;;;;;;;;;;5061268;28;24502;-59
2021/12/16 17:40:23;;;;;;;19.52;15.85;;;;;;;;;;5063456;28;24489;-59
2021/12/16 17:42:51;;;;;;;17.30;14.10;;;;;;;;;;5062697;28;24497;-60
2021/12/16 17:45:23;;;;;;;14.73;12.70;;;;;;;;;;5060915;28;24411;-59
2021/12/16 17:47:49;;;;;;;16.65;13.60;;;;;;;;;;5039843;28;24418;-60